National Weather Service Raw Text Product

Displaying AFOS PIL: TAFDSM Received: 2017-10-13 05:35 UTC


562 
FTUS43 KDMX 130535
TAFDSM
TAF
KDSM 130535Z 1306/1406 14009KT P6SM SKC
     FM131400 04006KT P6SM BKN020
     FM131800 04009KT P6SM VCSH OVC018
     FM140000 05007KT P6SM OVC020=